sensor_id;sensor_type;location;lat;lon;timestamp;temperature;humidity
33815;DHT22;20121;51.910;8.406;2023-03-05T00:01:25;3.40;99.90
33815;DHT22;20121;51.910;8.406;2023-03-05T00:03:53;3.40;99.90
33815;DHT22;20121;51.910;8.406;2023-03-05T00:06:20;3.40;99.90
33815;DHT22;20121;51.910;8.406;2023-03-05T00:08:46;3.40;99.90
33815;DHT22;20121;51.910;8.406;2023-03-05T00:11:12;3.40;99.90
33815;DHT22;20121;51.910;8.406;2023-03-05T00:13:38;3.50;99.90
33815;DHT22;20121;51.910;8.406;2023-03-05T00:16:14;3.40;99.90
33815;DHT22;20121;51.910;8.406;2023-03-05T00:18:40;3.40;99.90
33815;DHT22;20121;51.910;8.406;2023-03-05T00:21:36;3.40;99.90
33815;DHT22;20121;51.910;8.406;2023-03-05T00:24:06;3.40;99.90
33815;DHT22;20121;51.910;8.406;2023-03-05T00:26:35;3.40;99.90
33815;DHT22;20121;51.910;8.406;2023-03-05T00:29:01;3.40;99.90
33815;DHT22;20121;51.910;8.406;2023-03-05T00:31:28;3.40;99.90
33815;DHT22;20121;51.910;8.406;2023-03-05T00:33:56;3.40;99.90
33815;DHT22;20121;51.910;8.406;2023-03-05T00:36:23;4.00;99.90
33815;DHT22;20121;51.910;8.406;2023-03-05T00:38:49;3.30;99.90
33815;DHT22;20121;51.910;8.406;2023-03-05T00:41:15;3.40;99.90
33815;DHT22;20121;51.910;8.406;2023-03-05T00:43:41;3.30;99.90
33815;DHT22;20121;51.910;8.406;2023-03-05T00:46:07;3.30;99.90
33815;DHT22;20121;51.910;8.406;2023-03-05T00:48:33;3.30;99.90
33815;DHT22;20121;51.910;8.406;2023-03-05T00:50:58;3.40;99.90
33815;DHT22;20121;51.910;8.406;2023-03-05T00:53:24;3.40;99.90
33815;DHT22;20121;51.910;8.406;2023-03-05T00:55:49;3.40;99.90
33815;DHT22;20121;51.910;8.406;2023-03-05T00:58:15;3.30;99.90
33815;DHT22;20121;51.910;8.406;2023-03-05T01:00:41;3.40;99.90
33815;DHT22;20121;51.910;8.406;2023-03-05T01:03:07;3.40;99.90
33815;DHT22;20121;51.910;8.406;2023-03-05T01:05:33;3.30;99.90
33815;DHT22;20121;51.910;8.406;2023-03-05T01:07:58;3.40;99.90
33815;DHT22;20121;51.910;8.406;2023-03-05T01:10:24;3.40;99.90
33815;DHT22;20121;51.910;8.406;2023-03-05T01:12:54;3.50;99.90
33815;DHT22;20121;51.910;8.406;2023-03-05T01:15:21;3.40;99.90
33815;DHT22;20121;51.910;8.406;2023-03-05T01:17:46;3.30;99.90
33815;DHT22;20121;51.910;8.406;2023-03-05T01:20:13;3.40;99.90
33815;DHT22;20121;51.910;8.406;2023-03-05T01:22:39;3.40;99.90
33815;DHT22;20121;51.910;8.406;2023-03-05T01:25:05;3.40;99.90
33815;DHT22;20121;51.910;8.406;2023-03-05T01:27:31;3.30;99.90
33815;DHT22;20121;51.910;8.406;2023-03-05T01:29:57;3.30;99.90
33815;DHT22;20121;51.910;8.406;2023-03-05T01:32:22;3.30;99.90
33815;DHT22;20121;51.910;8.406;2023-03-05T01:34:48;3.30;99.90
33815;DHT22;20121;51.910;8.406;2023-03-05T01:37:13;3.30;99.90
33815;DHT22;20121;51.910;8.406;2023-03-05T01:39:39;3.40;99.90
33815;DHT22;20121;51.910;8.406;2023-03-05T01:42:05;3.30;99.90
33815;DHT22;20121;51.910;8.406;2023-03-05T01:44:32;3.30;99.90
33815;DHT22;20121;51.910;8.406;2023-03-05T01:46:57;3.30;99.90
33815;DHT22;20121;51.910;8.406;2023-03-05T01:49:29;3.30;99.90
33815;DHT22;20121;51.910;8.406;2023-03-05T01:52:07;3.30;99.90
33815;DHT22;20121;51.910;8.406;2023-03-05T01:54:58;3.30;99.90
33815;DHT22;20121;51.910;8.406;2023-03-05T01:58:03;3.30;99.90
33815;DHT22;20121;51.910;8.406;2023-03-05T02:00:25;3.30;99.90
33815;DHT22;20121;51.910;8.406;2023-03-05T02:02:52;3.20;99.90
33815;DHT22;20121;51.910;8.406;2023-03-05T02:05:23;3.20;99.90
33815;DHT22;20121;51.910;8.406;2023-03-05T02:07:57;3.20;99.90
33815;DHT22;20121;51.910;8.406;2023-03-05T02:10:26;3.20;99.90
33815;DHT22;20121;51.910;8.406;2023-03-05T02:12:54;3.20;99.90
33815;DHT22;20121;51.910;8.406;2023-03-05T02:15:20;3.20;99.90
33815;DHT22;20121;51.910;8.406;2023-03-05T02:17:46;3.20;99.90
33815;DHT22;20121;51.910;8.406;2023-03-05T02:20:17;3.20;99.90
33815;DHT22;20121;51.910;8.406;2023-03-05T02:22:43;3.20;99.90
33815;DHT22;20121;51.910;8.406;2023-03-05T02:25:28;3.20;99.90
33815;DHT22;20121;51.910;8.406;2023-03-05T02:28:01;3.20;99.90
33815;DHT22;20121;51.910;8.406;2023-03-05T02:30:27;3.20;99.90
33815;DHT22;20121;51.910;8.406;2023-03-05T02:32:54;3.20;99.90
33815;DHT22;20121;51.910;8.406;2023-03-05T02:35:20;3.20;99.90
33815;DHT22;20121;51.910;8.406;2023-03-05T02:37:45;3.20;99.90
33815;DHT22;20121;51.910;8.406;2023-03-05T02:40:12;3.10;99.90
33815;DHT22;20121;51.910;8.406;2023-03-05T02:42:38;3.10;99.90
33815;DHT22;20121;51.910;8.406;2023-03-05T02:45:05;3.10;99.90
33815;DHT22;20121;51.910;8.406;2023-03-05T02:47:31;3.10;99.90
33815;DHT22;20121;51.910;8.406;2023-03-05T02:49:56;3.10;99.90
33815;DHT22;20121;51.910;8.406;2023-03-05T02:52:22;3.10;99.90
33815;DHT22;20121;51.910;8.406;2023-03-05T02:54:48;3.10;99.90
33815;DHT22;20121;51.910;8.406;2023-03-05T02:57:15;3.10;99.90
33815;DHT22;20121;51.910;8.406;2023-03-05T02:59:41;3.10;99.90
33815;DHT22;20121;51.910;8.406;2023-03-05T03:02:06;3.10;99.90
33815;DHT22;20121;51.910;8.406;2023-03-05T03:04:32;3.10;99.90
33815;DHT22;20121;51.910;8.406;2023-03-05T03:06:58;3.10;99.90
33815;DHT22;20121;51.910;8.406;2023-03-05T03:09:23;3.10;99.90
33815;DHT22;20121;51.910;8.406;2023-03-05T03:11:50;3.10;99.90
33815;DHT22;20121;51.910;8.406;2023-03-05T03:14:15;3.10;99.90
33815;DHT22;20121;51.910;8.406;2023-03-05T03:16:41;3.10;99.90
33815;DHT22;20121;51.910;8.406;2023-03-05T03:19:06;3.10;99.90
33815;DHT22;20121;51.910;8.406;2023-03-05T03:21:32;3.10;99.90
33815;DHT22;20121;51.910;8.406;2023-03-05T03:23:58;3.10;99.90
33815;DHT22;20121;51.910;8.406;2023-03-05T03:26:23;3.10;99.90
33815;DHT22;20121;51.910;8.406;2023-03-05T03:28:49;3.10;99.90
33815;DHT22;20121;51.910;8.406;2023-03-05T03:31:15;3.10;99.90
33815;DHT22;20121;51.910;8.406;2023-03-05T03:33:41;3.10;99.90
33815;DHT22;20121;51.910;8.406;2023-03-05T03:36:07;3.10;99.90
33815;DHT22;20121;51.910;8.406;2023-03-05T03:38:32;3.10;99.90
33815;DHT22;20121;51.910;8.406;2023-03-05T03:40:58;3.10;99.90
33815;DHT22;20121;51.910;8.406;2023-03-05T03:43:24;3.10;99.90
33815;DHT22;20121;51.910;8.406;2023-03-05T03:45:49;3.10;99.90
33815;DHT22;20121;51.910;8.406;2023-03-05T03:48:15;3.10;99.90
33815;DHT22;20121;51.910;8.406;2023-03-05T03:50:42;3.10;99.90
33815;DHT22;20121;51.910;8.406;2023-03-05T03:53:09;3.10;99.90
33815;DHT22;20121;51.910;8.406;2023-03-05T03:55:39;3.10;99.90
33815;DHT22;20121;51.910;8.406;2023-03-05T03:58:05;3.10;99.90
33815;DHT22;20121;51.910;8.406;2023-03-05T04:00:30;3.10;99.90
33815;DHT22;20121;51.910;8.406;2023-03-05T04:02:56;3.10;99.90
33815;DHT22;20121;51.910;8.406;2023-03-05T04:05:22;3.10;99.90
33815;DHT22;20121;51.910;8.406;2023-03-05T04:07:47;3.10;99.90
33815;DHT22;20121;51.910;8.406;2023-03-05T04:10:13;3.10;99.90
33815;DHT22;20121;51.910;8.406;2023-03-05T04:12:38;3.10;99.90
33815;DHT22;20121;51.910;8.406;2023-03-05T04:15:07;3.10;99.90
33815;DHT22;20121;51.910;8.406;2023-03-05T04:17:33;3.10;99.90
33815;DHT22;20121;51.910;8.406;2023-03-05T04:19:59;3.10;99.90
33815;DHT22;20121;51.910;8.406;2023-03-05T04:22:25;3.10;99.90
33815;DHT22;20121;51.910;8.406;2023-03-05T04:24:50;3.10;99.90
33815;DHT22;20121;51.910;8.406;2023-03-05T04:27:16;3.10;99.90
33815;DHT22;20121;51.910;8.406;2023-03-05T04:29:41;3.10;99.90
33815;DHT22;20121;51.910;8.406;2023-03-05T04:32:07;3.00;99.90
33815;DHT22;20121;51.910;8.406;2023-03-05T04:34:33;3.00;99.90
33815;DHT22;20121;51.910;8.406;2023-03-05T04:36:59;3.00;99.90
33815;DHT22;20121;51.910;8.406;2023-03-05T04:39:25;3.00;99.90
33815;DHT22;20121;51.910;8.406;2023-03-05T04:41:51;3.00;99.90
33815;DHT22;20121;51.910;8.406;2023-03-05T04:44:16;3.00;99.90
33815;DHT22;20121;51.910;8.406;2023-03-05T04:46:42;3.00;99.90
33815;DHT22;20121;51.910;8.406;2023-03-05T04:49:08;3.00;99.90
33815;DHT22;20121;51.910;8.406;2023-03-05T04:51:33;3.00;99.90
33815;DHT22;20121;51.910;8.406;2023-03-05T04:53:59;3.00;99.90
33815;DHT22;20121;51.910;8.406;2023-03-05T04:56:25;3.00;99.90
33815;DHT22;20121;51.910;8.406;2023-03-05T04:58:50;3.00;99.90
33815;DHT22;20121;51.910;8.406;2023-03-05T05:01:16;3.00;99.90
33815;DHT22;20121;51.910;8.406;2023-03-05T05:03:42;3.00;99.90
33815;DHT22;20121;51.910;8.406;2023-03-05T05:06:07;2.90;99.90
33815;DHT22;20121;51.910;8.406;2023-03-05T05:08:33;2.90;99.90
33815;DHT22;20121;51.910;8.406;2023-03-05T05:11:01;3.00;99.90
33815;DHT22;20121;51.910;8.406;2023-03-05T05:13:27;3.00;99.90
33815;DHT22;20121;51.910;8.406;2023-03-05T05:15:53;2.90;99.90
33815;DHT22;20121;51.910;8.406;2023-03-05T05:18:20;2.90;99.90
33815;DHT22;20121;51.910;8.406;2023-03-05T05:20:46;2.90;99.90
33815;DHT22;20121;51.910;8.406;2023-03-05T05:23:12;2.90;99.90
33815;DHT22;20121;51.910;8.406;2023-03-05T05:25:38;2.90;99.90
33815;DHT22;20121;51.910;8.406;2023-03-05T05:28:04;2.90;99.90
33815;DHT22;20121;51.910;8.406;2023-03-05T05:30:29;2.90;99.90
33815;DHT22;20121;51.910;8.406;2023-03-05T05:32:55;2.90;99.90
33815;DHT22;20121;51.910;8.406;2023-03-05T05:35:21;2.90;99.90
33815;DHT22;20121;51.910;8.406;2023-03-05T05:37:47;2.90;99.90
33815;DHT22;20121;51.910;8.406;2023-03-05T05:40:13;2.90;99.90
33815;DHT22;20121;51.910;8.406;2023-03-05T05:42:38;2.90;99.90
33815;DHT22;20121;51.910;8.406;2023-03-05T05:45:04;2.90;99.90
33815;DHT22;20121;51.910;8.406;2023-03-05T05:47:30;2.90;99.90
33815;DHT22;20121;51.910;8.406;2023-03-05T05:49:56;2.90;99.90
33815;DHT22;20121;51.910;8.406;2023-03-05T05:52:22;2.90;99.90
33815;DHT22;20121;51.910;8.406;2023-03-05T05:54:47;2.90;99.90
33815;DHT22;20121;51.910;8.406;2023-03-05T05:57:13;2.90;99.90
33815;DHT22;20121;51.910;8.406;2023-03-05T05:59:39;3.10;99.90
33815;DHT22;20121;51.910;8.406;2023-03-05T06:02:06;3.10;99.90
33815;DHT22;20121;51.910;8.406;2023-03-05T06:04:33;3.10;99.90
33815;DHT22;20121;51.910;8.406;2023-03-05T06:06:59;3.10;99.90
33815;DHT22;20121;51.910;8.406;2023-03-05T06:09:26;3.10;99.90
33815;DHT22;20121;51.910;8.406;2023-03-05T06:11:52;3.10;99.90
33815;DHT22;20121;51.910;8.406;2023-03-05T06:14:17;3.00;99.90
33815;DHT22;20121;51.910;8.406;2023-03-05T06:16:43;2.90;99.90
33815;DHT22;20121;51.910;8.406;2023-03-05T06:19:14;2.90;99.90
33815;DHT22;20121;51.910;8.406;2023-03-05T06:21:39;2.90;99.90
33815;DHT22;20121;51.910;8.406;2023-03-05T06:24:05;2.90;99.90
33815;DHT22;20121;51.910;8.406;2023-03-05T06:26:31;2.90;99.90
33815;DHT22;20121;51.910;8.406;2023-03-05T06:28:57;2.90;99.90
33815;DHT22;20121;51.910;8.406;2023-03-05T06:31:25;2.90;99.90
33815;DHT22;20121;51.910;8.406;2023-03-05T06:33:53;2.90;99.90
33815;DHT22;20121;51.910;8.406;2023-03-05T06:36:21;2.90;99.90
33815;DHT22;20121;51.910;8.406;2023-03-05T06:38:47;2.90;99.90
33815;DHT22;20121;51.910;8.406;2023-03-05T06:41:15;2.90;99.90
33815;DHT22;20121;51.910;8.406;2023-03-05T06:43:46;2.90;99.90
33815;DHT22;20121;51.910;8.406;2023-03-05T06:48:44;3.00;99.90
33815;DHT22;20121;51.910;8.406;2023-03-05T06:51:23;3.00;99.90
33815;DHT22;20121;51.910;8.406;2023-03-05T06:53:49;2.80;99.90
33815;DHT22;20121;51.910;8.406;2023-03-05T06:56:15;3.00;99.90
33815;DHT22;20121;51.910;8.406;2023-03-05T06:58:42;3.00;99.90
33815;DHT22;20121;51.910;8.406;2023-03-05T07:01:08;3.00;99.90
33815;DHT22;20121;51.910;8.406;2023-03-05T07:03:35;3.00;99.90
33815;DHT22;20121;51.910;8.406;2023-03-05T07:06:05;3.20;99.90
33815;DHT22;20121;51.910;8.406;2023-03-05T07:08:31;3.10;99.90
33815;DHT22;20121;51.910;8.406;2023-03-05T07:10:57;3.10;99.90
33815;DHT22;20121;51.910;8.406;2023-03-05T07:13:24;3.10;99.90
33815;DHT22;20121;51.910;8.406;2023-03-05T07:15:50;3.10;99.90
33815;DHT22;20121;51.910;8.406;2023-03-05T07:18:16;3.00;99.90
33815;DHT22;20121;51.910;8.406;2023-03-05T07:20:41;3.10;99.90
33815;DHT22;20121;51.910;8.406;2023-03-05T07:23:07;3.10;99.90
33815;DHT22;20121;51.910;8.406;2023-03-05T07:25:35;3.10;99.90
33815;DHT22;20121;51.910;8.406;2023-03-05T07:28:01;3.40;99.90
33815;DHT22;20121;51.910;8.406;2023-03-05T07:30:27;3.10;99.90
33815;DHT22;20121;51.910;8.406;2023-03-05T07:32:52;3.10;99.90
33815;DHT22;20121;51.910;8.406;2023-03-05T07:35:18;3.10;99.90
33815;DHT22;20121;51.910;8.406;2023-03-05T07:37:44;3.20;99.90
33815;DHT22;20121;51.910;8.406;2023-03-05T07:40:10;3.20;99.90
33815;DHT22;20121;51.910;8.406;2023-03-05T07:42:35;3.20;99.90
33815;DHT22;20121;51.910;8.406;2023-03-05T07:45:01;3.20;99.90
33815;DHT22;20121;51.910;8.406;2023-03-05T07:47:27;3.00;99.90
33815;DHT22;20121;51.910;8.406;2023-03-05T07:49:52;3.30;99.90
33815;DHT22;20121;51.910;8.406;2023-03-05T07:52:18;3.30;99.90
33815;DHT22;20121;51.910;8.406;2023-03-05T07:54:44;3.30;99.90
33815;DHT22;20121;51.910;8.406;2023-03-05T07:57:10;3.30;99.90
33815;DHT22;20121;51.910;8.406;2023-03-05T07:59:37;3.30;99.90
33815;DHT22;20121;51.910;8.406;2023-03-05T08:02:03;3.30;99.90
33815;DHT22;20121;51.910;8.406;2023-03-05T08:04:29;3.30;99.90
33815;DHT22;20121;51.910;8.406;2023-03-05T08:06:57;3.40;99.90
33815;DHT22;20121;51.910;8.406;2023-03-05T08:09:22;3.40;99.90
33815;DHT22;20121;51.910;8.406;2023-03-05T08:11:48;3.40;99.90
33815;DHT22;20121;51.910;8.406;2023-03-05T08:14:14;3.40;99.90
33815;DHT22;20121;51.910;8.406;2023-03-05T08:16:39;3.50;99.90
33815;DHT22;20121;51.910;8.406;2023-03-05T08:19:05;3.60;99.90
33815;DHT22;20121;51.910;8.406;2023-03-05T08:21:33;3.50;99.90
33815;DHT22;20121;51.910;8.406;2023-03-05T08:24:01;3.60;99.90
33815;DHT22;20121;51.910;8.406;2023-03-05T08:26:30;3.60;99.90
33815;DHT22;20121;51.910;8.406;2023-03-05T08:28:56;3.70;99.90
33815;DHT22;20121;51.910;8.406;2023-03-05T08:31:23;3.70;99.90
33815;DHT22;20121;51.910;8.406;2023-03-05T08:33:50;3.70;99.90
33815;DHT22;20121;51.910;8.406;2023-03-05T08:36:16;3.70;99.90
33815;DHT22;20121;51.910;8.406;2023-03-05T08:38:41;3.80;99.90
33815;DHT22;20121;51.910;8.406;2023-03-05T08:41:09;3.80;99.90
33815;DHT22;20121;51.910;8.406;2023-03-05T08:43:35;3.80;99.90
33815;DHT22;20121;51.910;8.406;2023-03-05T08:46:01;3.90;99.90
33815;DHT22;20121;51.910;8.406;2023-03-05T08:48:27;4.00;99.90
33815;DHT22;20121;51.910;8.406;2023-03-05T08:50:53;4.00;99.90
33815;DHT22;20121;51.910;8.406;2023-03-05T08:53:19;4.10;99.90
33815;DHT22;20121;51.910;8.406;2023-03-05T08:55:53;4.10;99.90
33815;DHT22;20121;51.910;8.406;2023-03-05T08:58:19;4.00;99.90
33815;DHT22;20121;51.910;8.406;2023-03-05T09:00:45;4.20;99.90
33815;DHT22;20121;51.910;8.406;2023-03-05T09:03:11;4.20;99.90
33815;DHT22;20121;51.910;8.406;2023-03-05T09:05:36;4.30;99.90
33815;DHT22;20121;51.910;8.406;2023-03-05T09:08:02;4.50;99.90
33815;DHT22;20121;51.910;8.406;2023-03-05T09:10:27;4.30;99.90
33815;DHT22;20121;51.910;8.406;2023-03-05T09:12:53;4.30;99.90
33815;DHT22;20121;51.910;8.406;2023-03-05T09:15:18;4.40;99.90
33815;DHT22;20121;51.910;8.406;2023-03-05T09:17:44;4.40;99.90
33815;DHT22;20121;51.910;8.406;2023-03-05T09:20:11;4.40;99.90
33815;DHT22;20121;51.910;8.406;2023-03-05T09:22:37;4.40;99.90
33815;DHT22;20121;51.910;8.406;2023-03-05T09:25:04;4.50;99.90
33815;DHT22;20121;51.910;8.406;2023-03-05T09:27:32;4.50;99.90
33815;DHT22;20121;51.910;8.406;2023-03-05T09:29:58;4.50;99.90
33815;DHT22;20121;51.910;8.406;2023-03-05T09:32:24;4.50;99.90
33815;DHT22;20121;51.910;8.406;2023-03-05T09:34:49;4.60;99.90
33815;DHT22;20121;51.910;8.406;2023-03-05T09:37:15;4.70;99.90
33815;DHT22;20121;51.910;8.406;2023-03-05T09:39:41;4.90;99.90
33815;DHT22;20121;51.910;8.406;2023-03-05T09:42:11;4.90;99.90
33815;DHT22;20121;51.910;8.406;2023-03-05T09:50:10;5.30;99.90
33815;DHT22;20121;51.910;8.406;2023-03-05T09:52:53;5.30;99.90
33815;DHT22;20121;51.910;8.406;2023-03-05T09:55:25;5.20;99.90
33815;DHT22;20121;51.910;8.406;2023-03-05T09:57:54;5.20;99.90
33815;DHT22;20121;51.910;8.406;2023-03-05T10:02:55;5.40;99.90
33815;DHT22;20121;51.910;8.406;2023-03-05T10:08:16;5.50;99.90
33815;DHT22;20121;51.910;8.406;2023-03-05T10:10:47;5.90;99.90
33815;DHT22;20121;51.910;8.406;2023-03-05T10:13:24;5.60;99.90
33815;DHT22;20121;51.910;8.406;2023-03-05T10:19:17;5.70;99.90
33815;DHT22;20121;51.910;8.406;2023-03-05T10:27:19;5.90;99.90
33815;DHT22;20121;51.910;8.406;2023-03-05T10:29:57;5.90;99.90
33815;DHT22;20121;51.910;8.406;2023-03-05T10:35:22;5.80;99.90
33815;DHT22;20121;51.910;8.406;2023-03-05T10:40:46;5.80;99.90
33815;DHT22;20121;51.910;8.406;2023-03-05T10:43:27;5.80;99.90
33815;DHT22;20121;51.910;8.406;2023-03-05T10:45:56;5.80;99.90
33815;DHT22;20121;51.910;8.406;2023-03-05T10:48:39;5.90;99.90
33815;DHT22;20121;51.910;8.406;2023-03-05T10:54:32;5.90;99.90
33815;DHT22;20121;51.910;8.406;2023-03-05T10:59:48;5.80;99.90
33815;DHT22;20121;51.910;8.406;2023-03-05T11:02:14;5.80;99.90
33815;DHT22;20121;51.910;8.406;2023-03-05T11:04:40;5.80;99.90
33815;DHT22;20121;51.910;8.406;2023-03-05T11:07:33;6.10;99.90
33815;DHT22;20121;51.910;8.406;2023-03-05T11:12:35;7.00;99.90
33815;DHT22;20121;51.910;8.406;2023-03-05T11:15:27;7.40;99.90
33815;DHT22;20121;51.910;8.406;2023-03-05T11:18:24;7.80;99.90
33815;DHT22;20121;51.910;8.406;2023-03-05T11:20:50;7.90;99.90
33815;DHT22;20121;51.910;8.406;2023-03-05T11:23:23;7.80;99.90
33815;DHT22;20121;51.910;8.406;2023-03-05T11:28:39;7.10;99.90
33815;DHT22;20121;51.910;8.406;2023-03-05T11:33:54;6.90;99.90
33815;DHT22;20121;51.910;8.406;2023-03-05T11:36:25;6.70;99.90
33815;DHT22;20121;51.910;8.406;2023-03-05T11:38:56;6.40;99.90
33815;DHT22;20121;51.910;8.406;2023-03-05T11:41:28;6.40;99.90
33815;DHT22;20121;51.910;8.406;2023-03-05T11:43:57;6.30;99.90
33815;DHT22;20121;51.910;8.406;2023-03-05T11:46:24;6.20;99.90
33815;DHT22;20121;51.910;8.406;2023-03-05T11:48:52;6.10;99.90
33815;DHT22;20121;51.910;8.406;2023-03-05T11:51:25;6.10;99.90
33815;DHT22;20121;51.910;8.406;2023-03-05T11:53:55;6.10;99.90
33815;DHT22;20121;51.910;8.406;2023-03-05T11:56:35;6.40;99.90
33815;DHT22;20121;51.910;8.406;2023-03-05T11:59:12;6.90;99.90
33815;DHT22;20121;51.910;8.406;2023-03-05T12:01:49;7.10;99.90
33815;DHT22;20121;51.910;8.406;2023-03-05T12:04:15;7.60;99.90
33815;DHT22;20121;51.910;8.406;2023-03-05T12:06:50;7.50;99.90
33815;DHT22;20121;51.910;8.406;2023-03-05T12:09:38;7.70;99.90
33815;DHT22;20121;51.910;8.406;2023-03-05T12:14:52;7.90;99.90
33815;DHT22;20121;51.910;8.406;2023-03-05T12:17:36;8.00;99.90
33815;DHT22;20121;51.910;8.406;2023-03-05T12:22:59;8.30;99.90
33815;DHT22;20121;51.910;8.406;2023-03-05T12:27:54;8.60;99.90
33815;DHT22;20121;51.910;8.406;2023-03-05T12:38:42;8.80;99.90
33815;DHT22;20121;51.910;8.406;2023-03-05T12:44:13;8.50;99.90
33815;DHT22;20121;51.910;8.406;2023-03-05T12:46:42;8.00;99.90
33815;DHT22;20121;51.910;8.406;2023-03-05T12:51:48;8.20;99.90
33815;DHT22;20121;51.910;8.406;2023-03-05T12:54:34;8.20;99.90
33815;DHT22;20121;51.910;8.406;2023-03-05T12:57:15;8.20;99.90
33815;DHT22;20121;51.910;8.406;2023-03-05T13:00:00;8.10;99.90
33815;DHT22;20121;51.910;8.406;2023-03-05T13:02:41;8.00;99.90
33815;DHT22;20121;51.910;8.406;2023-03-05T13:05:19;8.00;99.90
33815;DHT22;20121;51.910;8.406;2023-03-05T13:07:46;8.10;99.90
33815;DHT22;20121;51.910;8.406;2023-03-05T13:10:27;8.10;99.90
33815;DHT22;20121;51.910;8.406;2023-03-05T13:12:55;8.10;99.90
33815;DHT22;20121;51.910;8.406;2023-03-05T13:15:23;8.10;99.90
33815;DHT22;20121;51.910;8.406;2023-03-05T13:17:53;8.10;99.90
33815;DHT22;20121;51.910;8.406;2023-03-05T13:25:39;7.80;99.90
33815;DHT22;20121;51.910;8.406;2023-03-05T13:28:16;7.70;99.90
33815;DHT22;20121;51.910;8.406;2023-03-05T13:30:53;7.60;99.90
33815;DHT22;20121;51.910;8.406;2023-03-05T13:33:32;7.50;99.90
33815;DHT22;20121;51.910;8.406;2023-03-05T13:35:59;7.60;99.90
33815;DHT22;20121;51.910;8.406;2023-03-05T13:38:42;8.20;99.90
33815;DHT22;20121;51.910;8.406;2023-03-05T13:46:35;7.30;99.90
33815;DHT22;20121;51.910;8.406;2023-03-05T13:49:19;7.20;99.90
33815;DHT22;20121;51.910;8.406;2023-03-05T13:51:56;7.10;99.90
33815;DHT22;20121;51.910;8.406;2023-03-05T13:54:25;6.80;99.90
33815;DHT22;20121;51.910;8.406;2023-03-05T13:57:03;7.10;99.90
33815;DHT22;20121;51.910;8.406;2023-03-05T13:59:35;7.00;99.90
33815;DHT22;20121;51.910;8.406;2023-03-05T14:02:10;7.00;99.90
33815;DHT22;20121;51.910;8.406;2023-03-05T14:04:41;7.10;99.90
33815;DHT22;20121;51.910;8.406;2023-03-05T14:07:30;7.10;99.90
33815;DHT22;20121;51.910;8.406;2023-03-05T14:09:56;7.20;99.90
33815;DHT22;20121;51.910;8.406;2023-03-05T14:14:47;7.30;99.90
33815;DHT22;20121;51.910;8.406;2023-03-05T14:17:41;7.10;99.90
33815;DHT22;20121;51.910;8.406;2023-03-05T14:22:41;7.50;99.90
33815;DHT22;20121;51.910;8.406;2023-03-05T14:25:35;7.40;99.90
33815;DHT22;20121;51.910;8.406;2023-03-05T14:30:33;7.40;99.90
33815;DHT22;20121;51.910;8.406;2023-03-05T14:33:01;7.40;99.90
33815;DHT22;20121;51.910;8.406;2023-03-05T14:35:27;7.40;99.90
33815;DHT22;20121;51.910;8.406;2023-03-05T14:37:56;7.40;99.90
33815;DHT22;20121;51.910;8.406;2023-03-05T14:40:32;7.30;99.90
33815;DHT22;20121;51.910;8.406;2023-03-05T14:43:03;7.40;99.90
33815;DHT22;20121;51.910;8.406;2023-03-05T14:45:47;7.30;99.90
33815;DHT22;20121;51.910;8.406;2023-03-05T14:48:16;7.30;99.90
33815;DHT22;20121;51.910;8.406;2023-03-05T14:50:48;7.30;99.90
33815;DHT22;20121;51.910;8.406;2023-03-05T14:53:22;7.20;99.90
33815;DHT22;20121;51.910;8.406;2023-03-05T14:55:50;7.20;99.90
33815;DHT22;20121;51.910;8.406;2023-03-05T14:58:23;7.10;99.90
33815;DHT22;20121;51.910;8.406;2023-03-05T15:00:51;7.10;99.90
33815;DHT22;20121;51.910;8.406;2023-03-05T15:03:20;7.00;99.90
33815;DHT22;20121;51.910;8.406;2023-03-05T15:05:48;7.10;99.90
33815;DHT22;20121;51.910;8.406;2023-03-05T15:08:29;7.20;99.90
33815;DHT22;20121;51.910;8.406;2023-03-05T15:10:56;7.20;99.90
33815;DHT22;20121;51.910;8.406;2023-03-05T15:13:22;7.10;99.90
33815;DHT22;20121;51.910;8.406;2023-03-05T15:15:49;7.10;99.90
33815;DHT22;20121;51.910;8.406;2023-03-05T15:18:17;7.00;99.90
33815;DHT22;20121;51.910;8.406;2023-03-05T15:20:44;7.00;99.90
33815;DHT22;20121;51.910;8.406;2023-03-05T15:23:10;6.90;99.90
33815;DHT22;20121;51.910;8.406;2023-03-05T15:25:37;6.90;99.90
33815;DHT22;20121;51.910;8.406;2023-03-05T15:28:03;6.80;99.90
33815;DHT22;20121;51.910;8.406;2023-03-05T15:30:34;6.80;99.90
33815;DHT22;20121;51.910;8.406;2023-03-05T15:33:03;6.90;99.90
33815;DHT22;20121;51.910;8.406;2023-03-05T15:35:29;6.80;99.90
33815;DHT22;20121;51.910;8.406;2023-03-05T15:37:55;6.50;99.90
33815;DHT22;20121;51.910;8.406;2023-03-05T15:40:22;6.70;99.90
33815;DHT22;20121;51.910;8.406;2023-03-05T15:42:49;6.70;99.90
33815;DHT22;20121;51.910;8.406;2023-03-05T15:45:15;6.60;99.90
33815;DHT22;20121;51.910;8.406;2023-03-05T15:47:40;6.60;99.90
33815;DHT22;20121;51.910;8.406;2023-03-05T15:50:08;6.60;99.90
33815;DHT22;20121;51.910;8.406;2023-03-05T15:52:34;6.50;99.90
33815;DHT22;20121;51.910;8.406;2023-03-05T15:55:00;6.60;99.90
33815;DHT22;20121;51.910;8.406;2023-03-05T15:57:26;6.60;99.90
33815;DHT22;20121;51.910;8.406;2023-03-05T15:59:52;6.50;99.90
33815;DHT22;20121;51.910;8.406;2023-03-05T16:02:21;6.30;99.90
33815;DHT22;20121;51.910;8.406;2023-03-05T16:04:49;6.50;99.90
33815;DHT22;20121;51.910;8.406;2023-03-05T16:07:14;6.50;99.90
33815;DHT22;20121;51.910;8.406;2023-03-05T16:09:43;6.50;99.90
33815;DHT22;20121;51.910;8.406;2023-03-05T16:12:18;6.40;99.90
33815;DHT22;20121;51.910;8.406;2023-03-05T16:14:45;6.40;99.90
33815;DHT22;20121;51.910;8.406;2023-03-05T16:17:12;6.40;99.90
33815;DHT22;20121;51.910;8.406;2023-03-05T16:19:41;6.00;99.90
33815;DHT22;20121;51.910;8.406;2023-03-05T16:22:08;6.40;99.90
33815;DHT22;20121;51.910;8.406;2023-03-05T16:24:34;6.10;99.90
33815;DHT22;20121;51.910;8.406;2023-03-05T16:27:00;6.30;99.90
33815;DHT22;20121;51.910;8.406;2023-03-05T16:29:25;6.30;99.90
33815;DHT22;20121;51.910;8.406;2023-03-05T16:31:53;6.20;99.90
33815;DHT22;20121;51.910;8.406;2023-03-05T16:34:19;6.20;99.90
33815;DHT22;20121;51.910;8.406;2023-03-05T16:36:48;6.20;99.90
33815;DHT22;20121;51.910;8.406;2023-03-05T16:39:18;6.10;99.90
33815;DHT22;20121;51.910;8.406;2023-03-05T16:41:43;6.10;99.90
33815;DHT22;20121;51.910;8.406;2023-03-05T16:44:09;6.10;99.90
33815;DHT22;20121;51.910;8.406;2023-03-05T16:46:35;5.60;99.90
33815;DHT22;20121;51.910;8.406;2023-03-05T16:49:01;6.00;99.90
33815;DHT22;20121;51.910;8.406;2023-03-05T16:51:27;5.90;99.90
33815;DHT22;20121;51.910;8.406;2023-03-05T16:53:53;5.90;99.90
33815;DHT22;20121;51.910;8.406;2023-03-05T16:56:19;5.90;99.90
33815;DHT22;20121;51.910;8.406;2023-03-05T16:58:45;5.80;99.90
33815;DHT22;20121;51.910;8.406;2023-03-05T17:01:17;5.80;99.90
33815;DHT22;20121;51.910;8.406;2023-03-05T17:03:44;5.70;99.90
33815;DHT22;20121;51.910;8.406;2023-03-05T17:06:12;5.70;99.90
33815;DHT22;20121;51.910;8.406;2023-03-05T17:08:38;5.70;99.90
33815;DHT22;20121;51.910;8.406;2023-03-05T17:11:04;5.70;99.90
33815;DHT22;20121;51.910;8.406;2023-03-05T17:13:30;5.40;99.90
33815;DHT22;20121;51.910;8.406;2023-03-05T17:15:55;5.60;99.90